sensor_id;sensor_type;location;lat;lon;timestamp;P1;durP1;ratioP1;P2;durP2;ratioP2
10430;SDS011;5262;59.958;17.726;2023-03-01T00:01:23;4.83;;;1.87;;
10430;SDS011;5262;59.958;17.726;2023-03-01T00:03:51;7.13;;;1.47;;
10430;SDS011;5262;59.958;17.726;2023-03-01T00:06:18;5.07;;;1.13;;
10430;SDS011;5262;59.958;17.726;2023-03-01T00:08:45;7.67;;;1.40;;
10430;SDS011;5262;59.958;17.726;2023-03-01T00:11:27;4.23;;;1.30;;
10430;SDS011;5262;59.958;17.726;2023-03-01T00:13:55;4.83;;;1.10;;
10430;SDS011;5262;59.958;17.726;2023-03-01T00:18:48;6.27;;;1.60;;
10430;SDS011;5262;59.958;17.726;2023-03-01T00:21:14;3.70;;;1.37;;
10430;SDS011;5262;59.958;17.726;2023-03-01T00:23:40;4.43;;;1.43;;
10430;SDS011;5262;59.958;17.726;2023-03-01T00:26:07;3.53;;;0.83;;
10430;SDS011;5262;59.958;17.726;2023-03-01T00:28:34;3.83;;;1.23;;
10430;SDS011;5262;59.958;17.726;2023-03-01T00:31:08;4.83;;;0.97;;
10430;SDS011;5262;59.958;17.726;2023-03-01T00:33:42;5.37;;;1.33;;
10430;SDS011;5262;59.958;17.726;2023-03-01T00:36:09;3.60;;;1.37;;
10430;SDS011;5262;59.958;17.726;2023-03-01T00:38:37;3.40;;;1.23;;
10430;SDS011;5262;59.958;17.726;2023-03-01T00:41:05;3.23;;;0.93;;
10430;SDS011;5262;59.958;17.726;2023-03-01T00:43:31;3.63;;;1.20;;
10430;SDS011;5262;59.958;17.726;2023-03-01T00:46:11;3.23;;;1.30;;
10430;SDS011;5262;59.958;17.726;2023-03-01T00:48:41;3.63;;;1.10;;
10430;SDS011;5262;59.958;17.726;2023-03-01T00:51:11;2.80;;;0.93;;
10430;SDS011;5262;59.958;17.726;2023-03-01T00:53:37;4.00;;;1.03;;
10430;SDS011;5262;59.958;17.726;2023-03-01T00:56:03;2.73;;;0.93;;
10430;SDS011;5262;59.958;17.726;2023-03-01T00:58:30;3.80;;;1.20;;
10430;SDS011;5262;59.958;17.726;2023-03-01T01:00:56;3.50;;;0.87;;
10430;SDS011;5262;59.958;17.726;2023-03-01T01:03:22;7.17;;;1.20;;
10430;SDS011;5262;59.958;17.726;2023-03-01T01:05:50;4.07;;;1.00;;
10430;SDS011;5262;59.958;17.726;2023-03-01T01:08:16;2.80;;;1.20;;
10430;SDS011;5262;59.958;17.726;2023-03-01T01:10:43;2.97;;;0.70;;
10430;SDS011;5262;59.958;17.726;2023-03-01T01:13:09;1.93;;;0.73;;
10430;SDS011;5262;59.958;17.726;2023-03-01T01:15:35;2.13;;;0.93;;
10430;SDS011;5262;59.958;17.726;2023-03-01T01:18:01;3.83;;;0.80;;
10430;SDS011;5262;59.958;17.726;2023-03-01T01:20:27;3.00;;;0.90;;
10430;SDS011;5262;59.958;17.726;2023-03-01T01:22:53;3.07;;;0.90;;
10430;SDS011;5262;59.958;17.726;2023-03-01T01:25:19;2.57;;;0.90;;
10430;SDS011;5262;59.958;17.726;2023-03-01T01:27:44;3.10;;;0.70;;
10430;SDS011;5262;59.958;17.726;2023-03-01T01:30:10;2.37;;;1.00;;
10430;SDS011;5262;59.958;17.726;2023-03-01T01:32:37;2.07;;;0.80;;
10430;SDS011;5262;59.958;17.726;2023-03-01T01:35:03;3.30;;;1.63;;
10430;SDS011;5262;59.958;17.726;2023-03-01T01:37:30;1.53;;;0.63;;
10430;SDS011;5262;59.958;17.726;2023-03-01T01:39:58;2.80;;;1.00;;
10430;SDS011;5262;59.958;17.726;2023-03-01T01:42:25;1.83;;;0.70;;
10430;SDS011;5262;59.958;17.726;2023-03-01T01:47:55;1.87;;;0.93;;
10430;SDS011;5262;59.958;17.726;2023-03-01T01:50:25;4.73;;;0.80;;
10430;SDS011;5262;59.958;17.726;2023-03-01T01:52:52;2.87;;;0.90;;
10430;SDS011;5262;59.958;17.726;2023-03-01T01:55:21;1.77;;;0.70;;
10430;SDS011;5262;59.958;17.726;2023-03-01T01:57:57;3.80;;;0.93;;
10430;SDS011;5262;59.958;17.726;2023-03-01T02:00:28;2.07;;;0.80;;
10430;SDS011;5262;59.958;17.726;2023-03-01T02:02:58;1.47;;;0.60;;
10430;SDS011;5262;59.958;17.726;2023-03-01T02:07:52;2.80;;;0.53;;
10430;SDS011;5262;59.958;17.726;2023-03-01T02:10:19;1.63;;;0.67;;
10430;SDS011;5262;59.958;17.726;2023-03-01T02:12:46;2.17;;;0.70;;
10430;SDS011;5262;59.958;17.726;2023-03-01T02:15:11;1.90;;;0.70;;
10430;SDS011;5262;59.958;17.726;2023-03-01T02:17:37;1.63;;;0.60;;
10430;SDS011;5262;59.958;17.726;2023-03-01T02:20:07;2.80;;;0.80;;
10430;SDS011;5262;59.958;17.726;2023-03-01T02:22:44;0.93;;;0.53;;
10430;SDS011;5262;59.958;17.726;2023-03-01T02:25:26;1.57;;;0.70;;
10430;SDS011;5262;59.958;17.726;2023-03-01T02:30:27;4.40;;;0.60;;
10430;SDS011;5262;59.958;17.726;2023-03-01T02:32:54;1.47;;;0.57;;
10430;SDS011;5262;59.958;17.726;2023-03-01T02:35:27;1.37;;;0.60;;
10430;SDS011;5262;59.958;17.726;2023-03-01T02:37:59;1.90;;;0.47;;
10430;SDS011;5262;59.958;17.726;2023-03-01T02:40:27;1.47;;;0.63;;
10430;SDS011;5262;59.958;17.726;2023-03-01T02:42:55;1.57;;;0.40;;
10430;SDS011;5262;59.958;17.726;2023-03-01T02:45:22;3.07;;;0.80;;
10430;SDS011;5262;59.958;17.726;2023-03-01T02:47:48;2.27;;;0.80;;
10430;SDS011;5262;59.958;17.726;2023-03-01T02:55:33;2.20;;;0.40;;
10430;SDS011;5262;59.958;17.726;2023-03-01T02:57:58;1.83;;;0.63;;
10430;SDS011;5262;59.958;17.726;2023-03-01T03:00:31;1.87;;;0.60;;
10430;SDS011;5262;59.958;17.726;2023-03-01T03:03:04;2.17;;;0.70;;
10430;SDS011;5262;59.958;17.726;2023-03-01T03:05:31;1.17;;;0.47;;
10430;SDS011;5262;59.958;17.726;2023-03-01T03:07:58;3.13;;;0.50;;
10430;SDS011;5262;59.958;17.726;2023-03-01T03:10:30;2.80;;;0.70;;
10430;SDS011;5262;59.958;17.726;2023-03-01T03:12:59;1.67;;;0.60;;
10430;SDS011;5262;59.958;17.726;2023-03-01T03:15:26;1.23;;;0.57;;
10430;SDS011;5262;59.958;17.726;2023-03-01T03:17:54;1.00;;;0.50;;
10430;SDS011;5262;59.958;17.726;2023-03-01T03:20:21;2.70;;;0.70;;
10430;SDS011;5262;59.958;17.726;2023-03-01T03:22:50;1.30;;;0.50;;
10430;SDS011;5262;59.958;17.726;2023-03-01T03:25:17;3.27;;;0.80;;
10430;SDS011;5262;59.958;17.726;2023-03-01T03:27:44;3.50;;;0.83;;
10430;SDS011;5262;59.958;17.726;2023-03-01T03:30:12;1.70;;;0.73;;
10430;SDS011;5262;59.958;17.726;2023-03-01T03:32:40;2.13;;;0.50;;
10430;SDS011;5262;59.958;17.726;2023-03-01T03:35:08;2.80;;;0.73;;
10430;SDS011;5262;59.958;17.726;2023-03-01T03:37:36;3.07;;;0.77;;
10430;SDS011;5262;59.958;17.726;2023-03-01T03:40:47;2.43;;;0.77;;
10430;SDS011;5262;59.958;17.726;2023-03-01T03:43:19;1.93;;;0.70;;
10430;SDS011;5262;59.958;17.726;2023-03-01T03:45:47;1.80;;;0.50;;
10430;SDS011;5262;59.958;17.726;2023-03-01T03:48:13;1.40;;;0.80;;
10430;SDS011;5262;59.958;17.726;2023-03-01T03:50:39;3.60;;;0.90;;
10430;SDS011;5262;59.958;17.726;2023-03-01T03:53:07;2.20;;;0.77;;
10430;SDS011;5262;59.958;17.726;2023-03-01T03:55:35;1.13;;;0.40;;
10430;SDS011;5262;59.958;17.726;2023-03-01T03:58:04;2.47;;;0.50;;
10430;SDS011;5262;59.958;17.726;2023-03-01T04:00:39;0.50;;;0.30;;
10430;SDS011;5262;59.958;17.726;2023-03-01T04:03:07;1.90;;;0.53;;
10430;SDS011;5262;59.958;17.726;2023-03-01T04:05:33;1.07;;;0.40;;
10430;SDS011;5262;59.958;17.726;2023-03-01T04:07:58;1.93;;;0.60;;
10430;SDS011;5262;59.958;17.726;2023-03-01T04:10:27;1.50;;;0.60;;
10430;SDS011;5262;59.958;17.726;2023-03-01T04:13:07;1.80;;;0.40;;
10430;SDS011;5262;59.958;17.726;2023-03-01T04:15:38;2.17;;;0.40;;
10430;SDS011;5262;59.958;17.726;2023-03-01T04:18:05;1.80;;;0.40;;
10430;SDS011;5262;59.958;17.726;2023-03-01T04:20:32;1.27;;;0.43;;
10430;SDS011;5262;59.958;17.726;2023-03-01T04:23:06;3.93;;;0.57;;
10430;SDS011;5262;59.958;17.726;2023-03-01T04:28:18;2.20;;;0.70;;
10430;SDS011;5262;59.958;17.726;2023-03-01T04:30:44;1.37;;;0.63;;
10430;SDS011;5262;59.958;17.726;2023-03-01T04:33:10;1.13;;;0.60;;
10430;SDS011;5262;59.958;17.726;2023-03-01T04:35:36;2.27;;;0.93;;
10430;SDS011;5262;59.958;17.726;2023-03-01T04:38:04;2.57;;;0.90;;
10430;SDS011;5262;59.958;17.726;2023-03-01T04:40:30;2.00;;;1.00;;
10430;SDS011;5262;59.958;17.726;2023-03-01T04:42:55;1.20;;;0.70;;
10430;SDS011;5262;59.958;17.726;2023-03-01T04:45:21;1.63;;;0.70;;
10430;SDS011;5262;59.958;17.726;2023-03-01T04:47:47;2.97;;;0.63;;
10430;SDS011;5262;59.958;17.726;2023-03-01T04:50:15;0.83;;;0.50;;
10430;SDS011;5262;59.958;17.726;2023-03-01T04:52:42;1.80;;;0.73;;
10430;SDS011;5262;59.958;17.726;2023-03-01T04:55:08;0.43;;;0.30;;
10430;SDS011;5262;59.958;17.726;2023-03-01T04:57:34;0.93;;;0.50;;
10430;SDS011;5262;59.958;17.726;2023-03-01T05:00:00;0.83;;;0.40;;
10430;SDS011;5262;59.958;17.726;2023-03-01T05:02:26;1.17;;;0.30;;
10430;SDS011;5262;59.958;17.726;2023-03-01T05:04:52;1.93;;;0.50;;
10430;SDS011;5262;59.958;17.726;2023-03-01T05:07:17;1.40;;;0.40;;
10430;SDS011;5262;59.958;17.726;2023-03-01T05:09:47;1.00;;;0.57;;
10430;SDS011;5262;59.958;17.726;2023-03-01T05:12:13;0.67;;;0.47;;
10430;SDS011;5262;59.958;17.726;2023-03-01T05:14:40;1.57;;;0.77;;
10430;SDS011;5262;59.958;17.726;2023-03-01T05:17:07;1.73;;;0.60;;
10430;SDS011;5262;59.958;17.726;2023-03-01T05:19:32;0.67;;;0.40;;
10430;SDS011;5262;59.958;17.726;2023-03-01T05:21:58;3.40;;;0.77;;
10430;SDS011;5262;59.958;17.726;2023-03-01T05:24:27;1.60;;;0.60;;
10430;SDS011;5262;59.958;17.726;2023-03-01T05:26:53;1.40;;;0.50;;
10430;SDS011;5262;59.958;17.726;2023-03-01T05:29:19;1.93;;;0.60;;
10430;SDS011;5262;59.958;17.726;2023-03-01T05:32:00;0.90;;;0.40;;
10430;SDS011;5262;59.958;17.726;2023-03-01T05:34:32;1.00;;;0.60;;
10430;SDS011;5262;59.958;17.726;2023-03-01T05:37:00;0.90;;;0.60;;
10430;SDS011;5262;59.958;17.726;2023-03-01T05:39:27;2.07;;;0.50;;
10430;SDS011;5262;59.958;17.726;2023-03-01T05:41:54;2.57;;;0.60;;
10430;SDS011;5262;59.958;17.726;2023-03-01T05:44:21;2.83;;;0.50;;
10430;SDS011;5262;59.958;17.726;2023-03-01T05:46:47;1.23;;;0.50;;
10430;SDS011;5262;59.958;17.726;2023-03-01T05:49:13;1.13;;;0.60;;
10430;SDS011;5262;59.958;17.726;2023-03-01T05:51:39;2.53;;;0.70;;
10430;SDS011;5262;59.958;17.726;2023-03-01T05:54:06;1.17;;;0.57;;
10430;SDS011;5262;59.958;17.726;2023-03-01T05:56:33;0.43;;;0.33;;
10430;SDS011;5262;59.958;17.726;2023-03-01T05:58:59;2.13;;;0.50;;
10430;SDS011;5262;59.958;17.726;2023-03-01T06:01:25;1.93;;;0.50;;
10430;SDS011;5262;59.958;17.726;2023-03-01T06:03:51;2.40;;;0.50;;
10430;SDS011;5262;59.958;17.726;2023-03-01T06:06:17;0.60;;;0.40;;
10430;SDS011;5262;59.958;17.726;2023-03-01T06:08:43;1.27;;;0.60;;
10430;SDS011;5262;59.958;17.726;2023-03-01T06:11:08;0.77;;;0.50;;
10430;SDS011;5262;59.958;17.726;2023-03-01T06:13:34;1.87;;;0.30;;
10430;SDS011;5262;59.958;17.726;2023-03-01T06:16:00;0.70;;;0.50;;
10430;SDS011;5262;59.958;17.726;2023-03-01T06:18:25;1.87;;;0.37;;
10430;SDS011;5262;59.958;17.726;2023-03-01T06:20:54;2.90;;;0.40;;
10430;SDS011;5262;59.958;17.726;2023-03-01T06:23:21;3.77;;;0.60;;
10430;SDS011;5262;59.958;17.726;2023-03-01T06:25:47;0.60;;;0.40;;
10430;SDS011;5262;59.958;17.726;2023-03-01T06:28:13;2.53;;;0.43;;
10430;SDS011;5262;59.958;17.726;2023-03-01T06:30:38;0.57;;;0.40;;
10430;SDS011;5262;59.958;17.726;2023-03-01T06:33:04;3.30;;;0.60;;
10430;SDS011;5262;59.958;17.726;2023-03-01T06:35:30;3.10;;;0.60;;
10430;SDS011;5262;59.958;17.726;2023-03-01T06:37:56;0.83;;;0.40;;
10430;SDS011;5262;59.958;17.726;2023-03-01T06:40:22;1.27;;;0.37;;
10430;SDS011;5262;59.958;17.726;2023-03-01T06:42:49;1.37;;;0.50;;
10430;SDS011;5262;59.958;17.726;2023-03-01T06:45:16;2.10;;;0.40;;
10430;SDS011;5262;59.958;17.726;2023-03-01T06:47:43;2.37;;;0.60;;
10430;SDS011;5262;59.958;17.726;2023-03-01T06:50:09;3.23;;;0.73;;
10430;SDS011;5262;59.958;17.726;2023-03-01T06:52:35;2.67;;;0.53;;
10430;SDS011;5262;59.958;17.726;2023-03-01T06:55:01;0.70;;;0.50;;
10430;SDS011;5262;59.958;17.726;2023-03-01T06:57:27;1.77;;;0.53;;
10430;SDS011;5262;59.958;17.726;2023-03-01T06:59:52;0.93;;;0.40;;
10430;SDS011;5262;59.958;17.726;2023-03-01T07:02:18;2.40;;;0.80;;
10430;SDS011;5262;59.958;17.726;2023-03-01T07:04:44;1.03;;;0.57;;
10430;SDS011;5262;59.958;17.726;2023-03-01T07:07:10;1.20;;;0.50;;
10430;SDS011;5262;59.958;17.726;2023-03-01T07:09:36;1.47;;;0.47;;
10430;SDS011;5262;59.958;17.726;2023-03-01T07:12:02;1.20;;;0.50;;
10430;SDS011;5262;59.958;17.726;2023-03-01T07:14:28;0.80;;;0.50;;
10430;SDS011;5262;59.958;17.726;2023-03-01T07:16:54;2.80;;;0.50;;
10430;SDS011;5262;59.958;17.726;2023-03-01T07:19:20;1.60;;;0.40;;
10430;SDS011;5262;59.958;17.726;2023-03-01T07:21:46;1.87;;;0.50;;
10430;SDS011;5262;59.958;17.726;2023-03-01T07:24:12;1.37;;;0.60;;
10430;SDS011;5262;59.958;17.726;2023-03-01T07:26:38;0.73;;;0.50;;
10430;SDS011;5262;59.958;17.726;2023-03-01T07:29:05;2.40;;;0.50;;
10430;SDS011;5262;59.958;17.726;2023-03-01T07:31:32;1.50;;;0.40;;
10430;SDS011;5262;59.958;17.726;2023-03-01T07:33:58;0.80;;;0.50;;
10430;SDS011;5262;59.958;17.726;2023-03-01T07:36:24;0.97;;;0.30;;
10430;SDS011;5262;59.958;17.726;2023-03-01T07:38:50;1.23;;;0.50;;
10430;SDS011;5262;59.958;17.726;2023-03-01T07:41:16;1.47;;;0.53;;
10430;SDS011;5262;59.958;17.726;2023-03-01T07:43:41;0.73;;;0.30;;
10430;SDS011;5262;59.958;17.726;2023-03-01T07:46:07;1.53;;;0.30;;
10430;SDS011;5262;59.958;17.726;2023-03-01T07:48:33;1.63;;;0.57;;
10430;SDS011;5262;59.958;17.726;2023-03-01T07:50:59;1.80;;;0.40;;
10430;SDS011;5262;59.958;17.726;2023-03-01T07:53:26;3.50;;;0.50;;
10430;SDS011;5262;59.958;17.726;2023-03-01T07:56:08;0.53;;;0.33;;
10430;SDS011;5262;59.958;17.726;2023-03-01T07:58:39;0.43;;;0.40;;
10430;SDS011;5262;59.958;17.726;2023-03-01T08:01:07;0.93;;;0.43;;
10430;SDS011;5262;59.958;17.726;2023-03-01T08:03:34;1.23;;;0.50;;
10430;SDS011;5262;59.958;17.726;2023-03-01T08:06:02;1.07;;;0.50;;
10430;SDS011;5262;59.958;17.726;2023-03-01T08:08:29;0.93;;;0.40;;
10430;SDS011;5262;59.958;17.726;2023-03-01T08:10:56;0.50;;;0.30;;
10430;SDS011;5262;59.958;17.726;2023-03-01T08:13:22;0.93;;;0.33;;
10430;SDS011;5262;59.958;17.726;2023-03-01T08:15:48;0.50;;;0.40;;
10430;SDS011;5262;59.958;17.726;2023-03-01T08:18:14;2.13;;;0.67;;
10430;SDS011;5262;59.958;17.726;2023-03-01T08:20:41;1.10;;;0.60;;
10430;SDS011;5262;59.958;17.726;2023-03-01T08:23:06;0.90;;;0.50;;
10430;SDS011;5262;59.958;17.726;2023-03-01T08:25:32;0.87;;;0.50;;
10430;SDS011;5262;59.958;17.726;2023-03-01T08:27:58;1.70;;;0.60;;
10430;SDS011;5262;59.958;17.726;2023-03-01T08:30:24;1.23;;;0.43;;
10430;SDS011;5262;59.958;17.726;2023-03-01T08:32:50;1.57;;;0.50;;
10430;SDS011;5262;59.958;17.726;2023-03-01T08:35:16;0.63;;;0.43;;
10430;SDS011;5262;59.958;17.726;2023-03-01T08:37:42;2.17;;;0.30;;
10430;SDS011;5262;59.958;17.726;2023-03-01T08:40:07;1.17;;;0.37;;
10430;SDS011;5262;59.958;17.726;2023-03-01T08:42:35;0.50;;;0.30;;
10430;SDS011;5262;59.958;17.726;2023-03-01T08:45:02;1.43;;;0.70;;
10430;SDS011;5262;59.958;17.726;2023-03-01T08:47:28;1.10;;;0.43;;
10430;SDS011;5262;59.958;17.726;2023-03-01T08:49:54;0.40;;;0.30;;
10430;SDS011;5262;59.958;17.726;2023-03-01T08:52:20;1.40;;;0.63;;
10430;SDS011;5262;59.958;17.726;2023-03-01T08:54:47;1.60;;;0.83;;
10430;SDS011;5262;59.958;17.726;2023-03-01T08:57:13;1.23;;;0.80;;
10430;SDS011;5262;59.958;17.726;2023-03-01T08:59:38;4.80;;;1.10;;
10430;SDS011;5262;59.958;17.726;2023-03-01T09:02:05;2.80;;;0.70;;
10430;SDS011;5262;59.958;17.726;2023-03-01T09:04:36;4.17;;;0.90;;
10430;SDS011;5262;59.958;17.726;2023-03-01T09:07:01;1.90;;;0.80;;
10430;SDS011;5262;59.958;17.726;2023-03-01T09:09:27;1.80;;;0.57;;
10430;SDS011;5262;59.958;17.726;2023-03-01T09:11:53;0.40;;;0.30;;
10430;SDS011;5262;59.958;17.726;2023-03-01T09:14:18;0.47;;;0.30;;
10430;SDS011;5262;59.958;17.726;2023-03-01T09:16:44;1.43;;;0.30;;
10430;SDS011;5262;59.958;17.726;2023-03-01T09:19:10;1.83;;;0.50;;
10430;SDS011;5262;59.958;17.726;2023-03-01T09:21:37;0.60;;;0.30;;
10430;SDS011;5262;59.958;17.726;2023-03-01T09:24:02;0.80;;;0.30;;
10430;SDS011;5262;59.958;17.726;2023-03-01T09:26:28;1.37;;;0.30;;
10430;SDS011;5262;59.958;17.726;2023-03-01T09:28:54;1.17;;;0.30;;
10430;SDS011;5262;59.958;17.726;2023-03-01T09:31:21;1.43;;;0.50;;
10430;SDS011;5262;59.958;17.726;2023-03-01T09:33:49;1.00;;;0.40;;
10430;SDS011;5262;59.958;17.726;2023-03-01T09:36:17;2.73;;;0.60;;
10430;SDS011;5262;59.958;17.726;2023-03-01T09:38:45;1.30;;;0.30;;
10430;SDS011;5262;59.958;17.726;2023-03-01T09:46:56;1.47;;;0.40;;
10430;SDS011;5262;59.958;17.726;2023-03-01T09:49:24;1.27;;;0.40;;
10430;SDS011;5262;59.958;17.726;2023-03-01T09:54:21;1.70;;;0.30;;
10430;SDS011;5262;59.958;17.726;2023-03-01T09:56:57;0.90;;;0.33;;
10430;SDS011;5262;59.958;17.726;2023-03-01T09:59:53;0.83;;;0.30;;
10430;SDS011;5262;59.958;17.726;2023-03-01T10:02:43;1.30;;;0.50;;
10430;SDS011;5262;59.958;17.726;2023-03-01T10:08:19;1.63;;;0.50;;
10430;SDS011;5262;59.958;17.726;2023-03-01T10:10:50;1.00;;;0.30;;
10430;SDS011;5262;59.958;17.726;2023-03-01T10:16:12;0.80;;;0.30;;
10430;SDS011;5262;59.958;17.726;2023-03-01T10:18:47;0.53;;;0.30;;
10430;SDS011;5262;59.958;17.726;2023-03-01T10:21:20;5.03;;;0.50;;
10430;SDS011;5262;59.958;17.726;2023-03-01T10:23:46;1.60;;;0.20;;
10430;SDS011;5262;59.958;17.726;2023-03-01T10:26:29;1.03;;;0.30;;
10430;SDS011;5262;59.958;17.726;2023-03-01T10:29:04;0.67;;;0.23;;
10430;SDS011;5262;59.958;17.726;2023-03-01T10:31:37;1.98;;;0.30;;
10430;SDS011;5262;59.958;17.726;2023-03-01T10:34:15;1.70;;;0.77;;
10430;SDS011;5262;59.958;17.726;2023-03-01T10:36:43;0.80;;;0.50;;
10430;SDS011;5262;59.958;17.726;2023-03-01T10:39:22;0.47;;;0.30;;
10430;SDS011;5262;59.958;17.726;2023-03-01T10:41:54;0.28;;;0.28;;
10430;SDS011;5262;59.958;17.726;2023-03-01T10:44:35;0.80;;;0.40;;
10430;SDS011;5262;59.958;17.726;2023-03-01T10:47:13;0.88;;;0.30;;
10430;SDS011;5262;59.958;17.726;2023-03-01T10:49:39;1.00;;;0.38;;
10430;SDS011;5262;59.958;17.726;2023-03-01T10:52:20;1.10;;;0.30;;
10430;SDS011;5262;59.958;17.726;2023-03-01T10:54:53;0.55;;;0.22;;
10430;SDS011;5262;59.958;17.726;2023-03-01T10:57:33;0.88;;;0.30;;
10430;SDS011;5262;59.958;17.726;2023-03-01T11:00:35;1.70;;;0.32;;
10430;SDS011;5262;59.958;17.726;2023-03-01T11:05:24;0.73;;;0.30;;
10430;SDS011;5262;59.958;17.726;2023-03-01T11:10:25;0.68;;;0.40;;
10430;SDS011;5262;59.958;17.726;2023-03-01T11:12:52;0.98;;;0.30;;
10430;SDS011;5262;59.958;17.726;2023-03-01T11:15:20;1.10;;;0.38;;
10430;SDS011;5262;59.958;17.726;2023-03-01T11:17:47;0.47;;;0.20;;
10430;SDS011;5262;59.958;17.726;2023-03-01T11:23:13;1.10;;;0.65;;
10430;SDS011;5262;59.958;17.726;2023-03-01T11:25:36;0.68;;;0.40;;
10430;SDS011;5262;59.958;17.726;2023-03-01T11:28:05;0.57;;;0.30;;
10430;SDS011;5262;59.958;17.726;2023-03-01T11:30:33;0.95;;;0.30;;
10430;SDS011;5262;59.958;17.726;2023-03-01T11:35:33;3.25;;;0.32;;
10430;SDS011;5262;59.958;17.726;2023-03-01T11:38:14;1.15;;;0.90;;
10430;SDS011;5262;59.958;17.726;2023-03-01T11:46:29;0.30;;;0.20;;
10430;SDS011;5262;59.958;17.726;2023-03-01T11:51:47;0.60;;;0.32;;
10430;SDS011;5262;59.958;17.726;2023-03-01T11:57:25;0.60;;;0.45;;
10430;SDS011;5262;59.958;17.726;2023-03-01T12:00:11;0.50;;;0.20;;
10430;SDS011;5262;59.958;17.726;2023-03-01T12:02:59;0.30;;;0.22;;
10430;SDS011;5262;59.958;17.726;2023-03-01T12:06:28;1.25;;;0.40;;
10430;SDS011;5262;59.958;17.726;2023-03-01T12:29:02;0.60;;;0.20;;
10430;SDS011;5262;59.958;17.726;2023-03-01T12:34:01;0.93;;;0.20;;
10430;SDS011;5262;59.958;17.726;2023-03-01T12:39:14;0.40;;;0.22;;
10430;SDS011;5262;59.958;17.726;2023-03-01T12:50:23;0.73;;;0.30;;
10430;SDS011;5262;59.958;17.726;2023-03-01T12:52:56;0.32;;;0.20;;
10430;SDS011;5262;59.958;17.726;2023-03-01T12:55:38;0.90;;;0.40;;
10430;SDS011;5262;59.958;17.726;2023-03-01T12:58:13;0.47;;;0.32;;
10430;SDS011;5262;59.958;17.726;2023-03-01T13:03:51;0.87;;;0.30;;
10430;SDS011;5262;59.958;17.726;2023-03-01T13:17:48;0.43;;;0.20;;
10430;SDS011;5262;59.958;17.726;2023-03-01T13:20:32;3.00;;;0.40;;
10430;SDS011;5262;59.958;17.726;2023-03-01T13:23:13;0.20;;;0.13;;
10430;SDS011;5262;59.958;17.726;2023-03-01T13:26:00;0.33;;;0.30;;
10430;SDS011;5262;59.958;17.726;2023-03-01T13:33:58;1.00;;;0.20;;
10430;SDS011;5262;59.958;17.726;2023-03-01T13:44:17;2.63;;;0.33;;
10430;SDS011;5262;59.958;17.726;2023-03-01T13:49:52;0.30;;;0.20;;
10430;SDS011;5262;59.958;17.726;2023-03-01T13:54:58;0.77;;;0.33;;
10430;SDS011;5262;59.958;17.726;2023-03-01T13:57:25;0.30;;;0.30;;
10430;SDS011;5262;59.958;17.726;2023-03-01T13:59:55;1.57;;;0.30;;
10430;SDS011;5262;59.958;17.726;2023-03-01T14:02:21;1.13;;;0.30;;
10430;SDS011;5262;59.958;17.726;2023-03-01T14:04:55;1.37;;;0.30;;
10430;SDS011;5262;59.958;17.726;2023-03-01T14:07:24;0.90;;;0.50;;
10430;SDS011;5262;59.958;17.726;2023-03-01T14:09:54;0.90;;;0.50;;
10430;SDS011;5262;59.958;17.726;2023-03-01T14:15:19;2.67;;;0.80;;
10430;SDS011;5262;59.958;17.726;2023-03-01T14:17:57;1.00;;;0.33;;
10430;SDS011;5262;59.958;17.726;2023-03-01T14:20:27;0.60;;;0.40;;
10430;SDS011;5262;59.958;17.726;2023-03-01T14:22:58;2.63;;;1.07;;
10430;SDS011;5262;59.958;17.726;2023-03-01T14:30:49;0.53;;;0.37;;
10430;SDS011;5262;59.958;17.726;2023-03-01T14:41:10;0.63;;;0.50;;
10430;SDS011;5262;59.958;17.726;2023-03-01T14:43:38;1.30;;;0.60;;
10430;SDS011;5262;59.958;17.726;2023-03-01T14:46:15;1.80;;;0.60;;
10430;SDS011;5262;59.958;17.726;2023-03-01T14:48:50;0.67;;;0.50;;
10430;SDS011;5262;59.958;17.726;2023-03-01T14:51:18;1.73;;;0.60;;
10430;SDS011;5262;59.958;17.726;2023-03-01T14:53:43;1.30;;;1.07;;
10430;SDS011;5262;59.958;17.726;2023-03-01T14:56:13;2.03;;;0.70;;
10430;SDS011;5262;59.958;17.726;2023-03-01T14:58:42;1.20;;;0.97;;
10430;SDS011;5262;59.958;17.726;2023-03-01T15:01:13;0.53;;;0.50;;
10430;SDS011;5262;59.958;17.726;2023-03-01T15:03:44;1.97;;;0.50;;
10430;SDS011;5262;59.958;17.726;2023-03-01T15:06:14;1.30;;;0.90;;
10430;SDS011;5262;59.958;17.726;2023-03-01T15:08:45;2.60;;;1.20;;
10430;SDS011;5262;59.958;17.726;2023-03-01T15:11:30;6.80;;;1.20;;
10430;SDS011;5262;59.958;17.726;2023-03-01T15:13:57;3.93;;;1.90;;
10430;SDS011;5262;59.958;17.726;2023-03-01T15:19:02;5.00;;;2.30;;
10430;SDS011;5262;59.958;17.726;2023-03-01T15:21:33;5.73;;;2.63;;
10430;SDS011;5262;59.958;17.726;2023-03-01T15:24:08;11.80;;;5.70;;
10430;SDS011;5262;59.958;17.726;2023-03-01T15:29:26;4.83;;;1.53;;
10430;SDS011;5262;59.958;17.726;2023-03-01T15:32:02;8.83;;;4.47;;
10430;SDS011;5262;59.958;17.726;2023-03-01T15:34:34;13.63;;;6.53;;
10430;SDS011;5262;59.958;17.726;2023-03-01T15:37:32;13.83;;;5.90;;
10430;SDS011;5262;59.958;17.726;2023-03-01T15:40:02;11.57;;;5.27;;
10430;SDS011;5262;59.958;17.726;2023-03-01T15:42:42;6.07;;;1.80;;
10430;SDS011;5262;59.958;17.726;2023-03-01T15:47:35;7.93;;;3.30;;
10430;SDS011;5262;59.958;17.726;2023-03-01T15:50:03;4.80;;;2.20;;
10430;SDS011;5262;59.958;17.726;2023-03-01T15:52:39;4.93;;;1.47;;
10430;SDS011;5262;59.958;17.726;2023-03-01T15:55:12;2.27;;;1.30;;
10430;SDS011;5262;59.958;17.726;2023-03-01T15:57:47;2.73;;;0.90;;
10430;SDS011;5262;59.958;17.726;2023-03-01T16:00:14;0.80;;;0.70;;
10430;SDS011;5262;59.958;17.726;2023-03-01T16:02:40;0.80;;;0.60;;
10430;SDS011;5262;59.958;17.726;2023-03-01T16:05:27;2.53;;;1.10;;
10430;SDS011;5262;59.958;17.726;2023-03-01T16:07:56;2.13;;;1.17;;
10430;SDS011;5262;59.958;17.726;2023-03-01T16:10:22;2.87;;;1.60;;
10430;SDS011;5262;59.958;17.726;2023-03-01T16:12:48;3.73;;;2.30;;
10430;SDS011;5262;59.958;17.726;2023-03-01T16:17:51;7.20;;;4.40;;
10430;SDS011;5262;59.958;17.726;2023-03-01T16:20:20;7.00;;;3.50;;
10430;SDS011;5262;59.958;17.726;2023-03-01T16:22:46;4.30;;;2.60;;
10430;SDS011;5262;59.958;17.726;2023-03-01T16:25:12;4.00;;;2.60;;
10430;SDS011;5262;59.958;17.726;2023-03-01T16:27:42;2.83;;;2.10;;
10430;SDS011;5262;59.958;17.726;2023-03-01T16:30:10;5.23;;;1.50;;
10430;SDS011;5262;59.958;17.726;2023-03-01T16:32:38;1.27;;;0.90;;
10430;SDS011;5262;59.958;17.726;2023-03-01T16:35:04;2.13;;;1.30;;
10430;SDS011;5262;59.958;17.726;2023-03-01T16:37:32;2.23;;;0.90;;
10430;SDS011;5262;59.958;17.726;2023-03-01T16:39:58;2.57;;;1.20;;
10430;SDS011;5262;59.958;17.726;2023-03-01T16:42:24;2.13;;;1.10;;
10430;SDS011;5262;59.958;17.726;2023-03-01T16:44:54;1.97;;;1.00;;
10430;SDS011;5262;59.958;17.726;2023-03-01T16:47:20;3.20;;;1.50;;
10430;SDS011;5262;59.958;17.726;2023-03-01T16:49:46;3.00;;;0.93;;
10430;SDS011;5262;59.958;17.726;2023-03-01T16:52:12;2.33;;;0.90;;
10430;SDS011;5262;59.958;17.726;2023-03-01T16:54:38;2.00;;;1.40;;
10430;SDS011;5262;59.958;17.726;2023-03-01T16:57:03;2.77;;;1.50;;
10430;SDS011;5262;59.958;17.726;2023-03-01T16:59:29;2.10;;;1.27;;
10430;SDS011;5262;59.958;17.726;2023-03-01T17:01:55;1.73;;;0.97;;
10430;SDS011;5262;59.958;17.726;2023-03-01T17:04:21;1.93;;;1.00;;
10430;SDS011;5262;59.958;17.726;2023-03-01T17:06:47;1.13;;;0.83;;
10430;SDS011;5262;59.958;17.726;2023-03-01T17:09:13;3.13;;;1.00;;
10430;SDS011;5262;59.958;17.726;2023-03-01T17:11:39;1.73;;;0.90;;
10430;SDS011;5262;59.958;17.726;2023-03-01T17:14:05;2.03;;;1.00;;
10430;SDS011;5262;59.958;17.726;2023-03-01T17:16:31;3.87;;;1.10;;
10430;SDS011;5262;59.958;17.726;2023-03-01T17:18:57;2.10;;;1.20;;
10430;SDS011;5262;59.958;17.726;2023-03-01T17:21:23;2.00;;;1.47;;
10430;SDS011;5262;59.958;17.726;2023-03-01T17:23:48;2.67;;;1.10;;
10430;SDS011;5262;59.958;17.726;2023-03-01T17:26:16;3.83;;;1.13;;
10430;SDS011;5262;59.958;17.726;2023-03-01T17:28:41;1.40;;;1.07;;